createdAt,value
2022-11-15T00:01:21.754Z,64.51
2022-11-15T00:02:49.266Z,64.44
2022-11-15T00:05:35.093Z,65.07
2022-11-15T00:07:03.514Z,65.13
2022-11-15T00:09:49.309Z,65.19
2022-11-15T00:11:16.198Z,65.01
2022-11-15T00:12:44.551Z,64.62
2022-11-15T00:14:13.122Z,64.58
2022-11-15T00:16:57.551Z,64.52
2022-11-15T00:18:25.196Z,64.63
2022-11-15T00:19:53.610Z,64.66
2022-11-15T00:22:37.451Z,64.42
2022-11-15T00:24:06.766Z,64.16
2022-11-15T00:26:50.617Z,64.32
2022-11-15T00:28:18.543Z,64.38
2022-11-15T00:29:46.603Z,64.48
2022-11-15T00:31:15.919Z,64.66
2022-11-15T00:32:44.804Z,64.80
2022-11-15T00:35:28.824Z,65.38
2022-11-15T00:36:57.261Z,65.32
2022-11-15T00:39:40.002Z,65.33
2022-11-15T00:41:09.982Z,65.17
2022-11-15T00:42:38.291Z,65.12
2022-11-15T00:45:21.213Z,65.52
2022-11-15T00:48:06.173Z,65.64
2022-11-15T00:50:50.678Z,66.18
2022-11-15T00:52:18.856Z,66.32
2022-11-15T00:55:01.393Z,66.28
2022-11-15T00:56:29.527Z,66.30
2022-11-15T00:59:12.370Z,65.88
2022-11-15T01:00:40.000Z,65.71
2022-11-15T01:03:23.994Z,65.41
2022-11-15T01:04:52.296Z,65.58
2022-11-15T01:06:21.192Z,65.87
2022-11-15T01:09:10.927Z,65.81
2022-11-15T01:11:54.355Z,65.92
2022-11-15T01:13:22.204Z,65.88
2022-11-15T01:14:50.753Z,66.07
2022-11-15T01:16:19.942Z,65.90
2022-11-15T01:17:47.823Z,65.89
2022-11-15T01:20:31.298Z,66.02
2022-11-15T01:23:13.019Z,65.96
2022-11-15T01:24:40.715Z,66.13
2022-11-15T01:27:27.987Z,66.03
2022-11-15T01:28:54.812Z,66.24
2022-11-15T01:30:22.438Z,66.43
2022-11-15T01:31:51.673Z,66.69
2022-11-15T01:33:20.220Z,66.37
2022-11-15T01:34:47.447Z,66.37
2022-11-15T01:37:34.450Z,66.70
2022-11-15T01:40:17.522Z,66.47
2022-11-15T01:41:46.289Z,66.37
2022-11-15T01:46:22.598Z,65.92
2022-11-15T01:47:54.466Z,65.79
2022-11-15T01:49:25.436Z,65.91
2022-11-15T01:50:53.883Z,65.87
2022-11-15T01:52:25.047Z,65.67
2022-11-15T01:53:54.920Z,65.55
2022-11-15T01:56:49.714Z,65.29
2022-11-15T01:58:17.136Z,65.08
2022-11-15T01:59:46.711Z,65.16
2022-11-15T02:02:31.951Z,65.21
2022-11-15T02:05:22.542Z,64.65
2022-11-15T02:06:51.110Z,64.74
2022-11-15T02:08:21.435Z,64.72
2022-11-15T02:09:50.427Z,64.84
2022-11-15T02:11:19.016Z,65.06
2022-11-15T02:14:06.051Z,64.88
2022-11-15T02:17:17.454Z,65.18
2022-11-15T02:18:51.185Z,65.06
2022-11-15T02:20:42.263Z,65.11
2022-11-15T02:22:33.050Z,65.19
2022-11-15T02:26:10.183Z,65.10
2022-11-15T02:29:30.267Z,65.43
2022-11-15T02:32:55.991Z,65.25
2022-11-15T02:36:05.222Z,65.29
2022-11-15T02:39:01.988Z,65.47
2022-11-15T02:40:34.063Z,65.48
2022-11-15T02:43:48.643Z,65.30
2022-11-15T02:47:01.096Z,65.77
2022-11-15T02:51:14.410Z,65.76
2022-11-15T02:52:43.503Z,65.95
2022-11-15T02:55:36.445Z,65.70
2022-11-15T02:57:06.102Z,65.61
2022-11-15T03:00:07.786Z,65.56
2022-11-15T03:03:07.209Z,65.55
2022-11-15T03:08:45.055Z,66.05
2022-11-15T03:11:45.746Z,65.96
2022-11-15T03:13:29.077Z,66.01
2022-11-15T03:16:39.682Z,65.84
2022-11-15T03:20:51.441Z,66.42
2022-11-15T03:23:40.095Z,66.48
2022-11-15T03:26:28.147Z,66.71
2022-11-15T03:28:00.166Z,66.45
2022-11-15T03:30:50.488Z,66.57
2022-11-15T03:33:37.412Z,66.67
2022-11-15T03:36:29.855Z,66.20
2022-11-15T03:39:39.038Z,65.94
2022-11-15T03:42:46.194Z,65.88
2022-11-15T03:45:44.156Z,66.12
2022-11-15T03:48:42.440Z,66.30
2022-11-15T03:50:17.188Z,66.14
2022-11-15T03:51:45.792Z,66.18
2022-11-15T03:54:28.888Z,66.71
2022-11-15T03:55:56.297Z,66.47
2022-11-15T03:58:39.402Z,66.54
2022-11-15T04:01:24.677Z,66.64
2022-11-15T04:04:09.221Z,66.78
2022-11-15T04:05:37.461Z,66.94
2022-11-15T04:07:15.577Z,66.85
2022-11-15T04:08:43.745Z,66.77
2022-11-15T04:10:12.510Z,67.08
2022-11-15T04:12:55.480Z,67.25
2022-11-15T04:15:56.955Z,67.29
2022-11-15T04:18:39.228Z,67.31
2022-11-15T04:22:03.629Z,67.31
2022-11-15T04:25:06.410Z,67.11
2022-11-15T04:27:50.655Z,66.99
2022-11-15T04:29:40.265Z,66.96
2022-11-15T04:32:24.139Z,67.33
2022-11-15T04:35:07.707Z,67.45
2022-11-15T04:38:12.320Z,67.28
2022-11-15T04:41:00.107Z,67.59
2022-11-15T04:42:28.273Z,67.25
2022-11-15T04:43:56.175Z,67.54
2022-11-15T04:45:24.763Z,67.42
2022-11-15T04:48:38.645Z,67.76
2022-11-15T04:51:22.083Z,67.30
2022-11-15T04:54:09.997Z,67.21
2022-11-15T04:55:38.903Z,67.09
2022-11-15T04:57:07.221Z,67.13
2022-11-15T04:59:49.804Z,67.43
2022-11-15T05:02:35.216Z,67.18
2022-11-15T05:05:39.022Z,67.01
2022-11-15T05:08:23.065Z,67.24
2022-11-15T05:11:04.974Z,67.06
2022-11-15T05:13:48.606Z,66.79
2022-11-15T05:15:17.400Z,67.06
2022-11-15T05:18:04.500Z,66.44
2022-11-15T05:19:32.132Z,66.69
2022-11-15T05:22:23.931Z,66.00
2022-11-15T05:25:09.246Z,65.97
2022-11-15T05:26:38.281Z,66.16
2022-11-15T05:28:06.495Z,65.99
2022-11-15T05:30:49.379Z,66.03
2022-11-15T05:33:36.215Z,66.62
2022-11-15T05:36:34.059Z,66.22
2022-11-15T05:39:19.060Z,66.39
2022-11-15T05:42:08.865Z,66.88
2022-11-15T05:43:40.114Z,66.23
2022-11-15T05:45:08.617Z,66.29
2022-11-15T05:48:03.873Z,66.80
2022-11-15T05:50:51.140Z,65.92
2022-11-15T05:52:23.174Z,65.62
2022-11-15T05:55:10.680Z,65.95
2022-11-15T05:57:55.219Z,65.56
2022-11-15T06:00:40.026Z,65.75
2022-11-15T06:02:09.240Z,65.72
2022-11-15T06:04:55.471Z,66.18
2022-11-15T06:07:37.254Z,66.48
2022-11-15T06:10:19.833Z,66.13
2022-11-15T06:13:05.182Z,66.48
2022-11-15T06:15:47.087Z,65.59
2022-11-15T06:18:29.034Z,65.92
2022-11-15T06:21:12.758Z,65.56
2022-11-15T06:22:40.473Z,65.60
2022-11-15T06:25:24.252Z,65.90
2022-11-15T06:28:08.500Z,66.45
2022-11-15T06:30:53.313Z,66.93
2022-11-15T06:32:20.095Z,66.76
2022-11-15T06:35:06.066Z,66.96
2022-11-15T06:37:53.509Z,66.02
2022-11-15T06:40:39.234Z,66.61
2022-11-15T06:43:23.238Z,66.15
2022-11-15T06:44:58.010Z,66.00
2022-11-15T06:47:48.275Z,65.25
2022-11-15T06:50:30.209Z,65.43
2022-11-15T06:51:57.082Z,65.89
2022-11-15T06:54:39.811Z,66.11
2022-11-15T06:57:24.064Z,65.85
2022-11-15T07:00:08.467Z,65.16
2022-11-15T07:01:36.917Z,65.67
2022-11-15T07:04:19.762Z,65.33
2022-11-15T07:07:11.363Z,65.35
2022-11-15T07:08:39.045Z,65.19
2022-11-15T07:10:09.224Z,65.70
2022-11-15T07:11:36.730Z,65.01
2022-11-15T07:14:20.872Z,65.13
2022-11-15T07:17:07.107Z,65.41
2022-11-15T07:18:36.128Z,65.67
2022-11-15T07:20:04.450Z,66.04
2022-11-15T07:21:34.481Z,66.00
2022-11-15T07:24:25.960Z,65.63
2022-11-15T07:27:09.185Z,66.41
2022-11-15T07:28:37.814Z,65.95
2022-11-15T07:30:09.763Z,65.35
2022-11-15T07:33:01.390Z,64.47
2022-11-15T07:35:43.618Z,64.95
2022-11-15T07:37:12.006Z,64.74
2022-11-15T07:39:54.819Z,65.85
2022-11-15T07:41:22.536Z,65.80
2022-11-15T07:44:12.508Z,65.93
2022-11-15T07:47:01.368Z,65.34
2022-11-15T07:48:42.260Z,64.80
2022-11-15T07:49:58.934Z,65.05
2022-11-15T07:51:26.263Z,64.97
2022-11-15T07:52:57.490Z,64.93
2022-11-15T07:55:42.472Z,65.33
2022-11-15T07:57:11.411Z,65.35
2022-11-15T07:58:38.960Z,64.97
2022-11-15T08:01:23.631Z,64.64
2022-11-15T08:04:08.034Z,63.65
2022-11-15T08:06:52.771Z,64.56
2022-11-15T08:09:35.907Z,63.60
2022-11-15T08:11:04.258Z,63.74
2022-11-15T08:12:31.434Z,64.16
2022-11-15T08:15:15.481Z,64.23
2022-11-15T08:17:59.465Z,63.66
2022-11-15T08:20:43.631Z,64.60
2022-11-15T08:23:28.146Z,63.77
2022-11-15T08:24:56.331Z,64.06
2022-11-15T08:26:23.844Z,63.67
2022-11-15T08:29:09.265Z,63.43
2022-11-15T08:30:42.635Z,63.55
2022-11-15T08:32:10.312Z,63.18
2022-11-15T08:33:37.613Z,63.38
2022-11-15T08:36:23.224Z,63.29
2022-11-15T08:39:06.960Z,62.92
2022-11-15T08:41:49.133Z,63.12
2022-11-15T08:44:51.761Z,63.10
2022-11-15T08:47:35.673Z,64.60
2022-11-15T08:50:18.987Z,64.99
2022-11-15T08:53:21.622Z,64.69
2022-11-15T08:56:06.376Z,64.62
2022-11-15T08:57:34.009Z,64.08
2022-11-15T08:59:01.544Z,64.62
2022-11-15T09:02:05.454Z,64.67
2022-11-15T09:03:33.389Z,63.82
2022-11-15T09:06:16.277Z,64.54
2022-11-15T09:07:44.111Z,64.69
2022-11-15T09:09:11.549Z,63.69
2022-11-15T09:10:39.819Z,63.84
2022-11-15T09:13:23.442Z,63.65
2022-11-15T09:16:06.369Z,64.00
2022-11-15T09:18:49.297Z,63.89
2022-11-15T09:21:34.406Z,63.69
2022-11-15T09:24:23.912Z,63.65
2022-11-15T09:27:06.802Z,64.05
2022-11-15T09:29:50.146Z,64.52
2022-11-15T09:31:21.003Z,63.62
2022-11-15T09:34:02.525Z,63.68
2022-11-15T09:36:45.621Z,63.88
2022-11-15T09:39:29.221Z,62.78
2022-11-15T09:44:35.799Z,63.25
2022-11-15T09:47:39.818Z,62.36
2022-11-15T09:49:07.966Z,62.26
2022-11-15T09:50:50.298Z,62.01
2022-11-15T09:52:00.541Z,62.11
2022-11-15T09:53:13.679Z,61.65
2022-11-15T09:57:54.347Z,62.94
2022-11-15T10:00:47.122Z,63.72
2022-11-15T10:02:16.963Z,63.85
2022-11-15T10:04:45.476Z,63.13
2022-11-15T10:07:25.835Z,63.34
2022-11-15T10:10:31.503Z,64.04
2022-11-15T10:12:57.626Z,62.82
2022-11-15T10:15:38.823Z,63.25
2022-11-15T10:18:46.103Z,63.97
2022-11-15T10:21:58.203Z,63.37
2022-11-15T10:24:29.098Z,63.47
2022-11-15T10:25:39.183Z,62.63
2022-11-15T10:28:28.389Z,62.62
2022-11-15T10:31:01.393Z,63.06
2022-11-15T10:32:19.622Z,63.29
2022-11-15T10:34:52.880Z,63.40
2022-11-15T10:37:32.360Z,63.18
2022-11-15T10:38:55.111Z,62.78
2022-11-15T10:41:34.985Z,63.50
2022-11-15T10:44:28.221Z,62.53
2022-11-15T10:45:38.683Z,62.57
2022-11-15T10:46:57.685Z,61.59
2022-11-15T10:49:33.979Z,62.08
2022-11-15T10:52:04.070Z,61.75
2022-11-15T10:54:55.582Z,62.21
2022-11-15T10:56:08.684Z,61.91
2022-11-15T10:58:41.992Z,62.02
2022-11-15T11:02:37.817Z,60.83
2022-11-15T11:06:53.776Z,61.16
2022-11-15T11:08:17.408Z,61.29
2022-11-15T11:09:44.145Z,60.90
2022-11-15T11:12:15.175Z,60.79
2022-11-15T11:14:46.483Z,60.83
2022-11-15T11:17:39.051Z,59.73
2022-11-15T11:22:03.463Z,60.56
2022-11-15T11:23:17.216Z,60.60
2022-11-15T11:26:23.211Z,60.90
2022-11-15T11:27:38.419Z,61.07
2022-11-15T11:30:41.936Z,60.94
2022-11-15T11:33:50.647Z,59.99
2022-11-15T11:36:52.394Z,61.16
2022-11-15T11:41:21.498Z,60.21
2022-11-15T11:44:09.901Z,60.65
2022-11-15T11:46:57.355Z,60.74
2022-11-15T11:49:54.907Z,61.16
2022-11-15T11:54:13.478Z,61.04
2022-11-15T11:57:01.611Z,60.89
2022-11-15T11:58:21.551Z,61.09
2022-11-15T12:02:33.058Z,60.66
2022-11-15T12:05:20.979Z,60.56
2022-11-15T12:08:31.596Z,60.61
2022-11-15T12:09:53.360Z,60.54
2022-11-15T12:14:10.872Z,60.88
2022-11-15T12:16:41.231Z,61.08
2022-11-15T12:19:05.760Z,61.60
2022-11-15T12:21:50.116Z,61.76
2022-11-15T12:24:28.596Z,61.69
2022-11-15T12:25:45.232Z,61.45
2022-11-15T12:28:58.651Z,60.94
2022-11-15T12:32:53.667Z,61.32
2022-11-15T12:35:39.682Z,61.89
2022-11-15T12:38:12.705Z,61.77
2022-11-15T12:41:18.051Z,61.56
2022-11-15T12:44:00.180Z,61.24
2022-11-15T12:47:04.626Z,61.53
2022-11-15T12:49:43.118Z,61.57
2022-11-15T12:52:16.239Z,61.63
2022-11-15T12:54:57.409Z,61.54
2022-11-15T12:57:35.522Z,61.52
2022-11-15T12:58:59.653Z,61.52
2022-11-15T13:01:43.138Z,61.04
2022-11-15T13:04:15.986Z,61.34
2022-11-15T13:08:10.037Z,61.14
2022-11-15T13:10:58.109Z,61.33
2022-11-15T13:13:45.785Z,61.46
2022-11-15T13:16:21.278Z,61.56
2022-11-15T13:18:55.810Z,61.78
2022-11-15T13:21:45.365Z,61.97
2022-11-15T13:23:23.612Z,61.95
2022-11-15T13:26:05.060Z,61.88
2022-11-15T13:28:40.421Z,61.70
2022-11-15T13:31:16.844Z,61.96
2022-11-15T13:33:41.545Z,61.82
2022-11-15T13:36:22.616Z,62.06
2022-11-15T13:38:57.651Z,62.06
2022-11-15T13:41:50.683Z,62.22
2022-11-15T13:44:27.013Z,61.91
2022-11-15T13:45:36.477Z,62.17
2022-11-15T13:46:45.697Z,62.02
2022-11-15T13:49:12.464Z,62.24
2022-11-15T13:51:51.975Z,62.44
2022-11-15T13:53:04.897Z,62.21
2022-11-15T13:54:19.986Z,62.15
2022-11-15T13:55:33.074Z,62.08
2022-11-15T13:58:24.360Z,62.54
2022-11-15T14:01:00.884Z,62.49
2022-11-15T14:03:38.981Z,62.74
2022-11-15T14:06:15.676Z,62.54
2022-11-15T14:09:01.926Z,62.81
2022-11-15T14:13:31.580Z,63.34
2022-11-15T14:17:35.136Z,63.14
2022-11-15T14:20:05.446Z,63.06
2022-11-15T14:22:34.064Z,63.50
2022-11-15T14:25:19.492Z,63.38
2022-11-15T14:28:12.736Z,63.42
2022-11-15T14:29:24.445Z,63.41
2022-11-15T14:31:48.353Z,63.57
2022-11-15T14:32:56.925Z,63.74
2022-11-15T14:35:24.188Z,63.82
2022-11-15T14:36:32.882Z,63.90
2022-11-15T14:38:46.671Z,64.03
2022-11-15T14:42:39.142Z,64.56
2022-11-15T14:45:24.840Z,64.65
2022-11-15T14:46:33.732Z,64.86
2022-11-15T14:48:58.933Z,64.79
2022-11-15T14:51:34.473Z,64.88
2022-11-15T14:54:06.367Z,65.36
2022-11-15T14:56:39.331Z,64.97
2022-11-15T14:59:03.161Z,64.88
2022-11-15T15:00:13.919Z,65.01
2022-11-15T15:01:26.211Z,64.92
2022-11-15T15:03:52.631Z,65.31
2022-11-15T15:05:04.655Z,65.33
2022-11-15T15:07:30.473Z,65.71
2022-11-15T15:10:24.481Z,65.94
2022-11-15T15:12:49.968Z,66.05
2022-11-15T15:15:19.810Z,65.90
2022-11-15T15:17:45.348Z,65.80
2022-11-15T15:20:10.912Z,65.94
2022-11-15T15:21:36.482Z,65.74
2022-11-15T15:23:57.807Z,65.80
2022-11-15T15:25:35.238Z,65.70
2022-11-15T15:26:45.425Z,65.94
2022-11-15T15:29:11.870Z,65.69
2022-11-15T15:31:39.673Z,66.08
2022-11-15T15:32:52.663Z,65.97
2022-11-15T15:35:19.942Z,65.69
2022-11-15T20:25:50.675Z,73.36
2022-11-15T20:27:00.613Z,73.17
2022-11-15T20:29:25.504Z,71.99
2022-11-15T20:31:49.237Z,71.79
2022-11-15T20:32:58.100Z,70.88
2022-11-15T20:34:07.272Z,70.74
2022-11-15T20:36:31.766Z,69.68
2022-11-15T20:37:41.440Z,68.90
2022-11-15T20:38:52.197Z,67.78
2022-11-15T20:40:00.638Z,67.65
2022-11-15T20:41:10.212Z,67.51
2022-11-15T20:43:34.038Z,66.94
2022-11-15T20:45:58.478Z,66.70
2022-11-15T20:48:24.501Z,67.06
2022-11-15T20:50:48.482Z,66.59
2022-11-15T20:53:15.521Z,66.75
2022-11-15T20:55:42.104Z,67.74
2022-11-15T20:56:51.383Z,67.84
2022-11-15T20:59:15.365Z,67.66
2022-11-15T21:01:41.467Z,67.26
2022-11-15T21:04:07.167Z,67.25
2022-11-15T21:05:17.345Z,67.40
2022-11-15T21:07:43.000Z,67.34
2022-11-15T21:09:12.658Z,67.42
2022-11-15T21:10:40.079Z,67.50
2022-11-15T21:13:22.491Z,67.22
2022-11-15T21:14:31.124Z,67.33
2022-11-15T21:15:40.000Z,67.43
2022-11-15T21:16:49.969Z,67.41
2022-11-15T21:19:14.581Z,67.93
2022-11-15T21:21:42.195Z,67.28
2022-11-15T21:24:08.940Z,67.52
2022-11-15T21:26:34.078Z,67.57
2022-11-15T21:28:57.830Z,67.60
2022-11-15T21:30:08.545Z,67.56
2022-11-15T21:32:33.654Z,67.22
2022-11-15T21:33:42.992Z,66.57
2022-11-15T21:34:54.942Z,66.68
2022-11-15T21:37:18.914Z,66.67
2022-11-15T21:38:29.119Z,66.51
2022-11-15T21:40:54.885Z,66.20
2022-11-15T21:42:04.878Z,65.97
2022-11-15T21:43:15.626Z,66.11
2022-11-15T21:45:39.308Z,66.66
2022-11-15T21:46:48.296Z,66.50
2022-11-15T21:49:12.693Z,65.90
2022-11-15T21:50:21.572Z,65.57
2022-11-15T21:51:31.410Z,65.81
2022-11-15T21:53:57.270Z,65.91
2022-11-15T21:56:25.038Z,65.45
2022-11-15T21:57:33.787Z,65.45
2022-11-15T22:00:37.957Z,65.69
2022-11-15T22:03:20.421Z,65.13
2022-11-15T22:04:29.957Z,65.04
2022-11-15T22:06:54.294Z,64.99
2022-11-15T22:08:05.049Z,64.95
2022-11-15T22:09:16.446Z,65.14
2022-11-15T22:11:40.812Z,64.86
2022-11-15T22:14:06.585Z,64.78
2022-11-15T22:16:31.403Z,64.82
2022-11-15T22:19:13.976Z,64.38
2022-11-15T22:21:42.211Z,64.70
2022-11-15T22:24:09.309Z,64.83
2022-11-15T22:25:19.595Z,65.32
2022-11-15T22:27:45.170Z,64.84
